createdAt,value
2023-02-21T00:01:02.347Z,9.40
2023-02-21T00:06:27.151Z,9.40
2023-02-21T00:11:48.389Z,9.40
2023-02-21T00:17:11.163Z,9.40
2023-02-21T00:22:32.283Z,9.30
2023-02-21T00:27:53.316Z,9.40
2023-02-21T00:33:15.670Z,9.40
2023-02-21T00:38:36.976Z,9.40
2023-02-21T00:43:58.500Z,9.30
2023-02-21T00:49:22.324Z,9.30
2023-02-21T00:54:43.650Z,9.30
2023-02-21T01:00:04.452Z,9.30
2023-02-21T01:05:27.252Z,9.20
2023-02-21T01:10:48.560Z,9.30
2023-02-21T01:16:09.994Z,9.30
2023-02-21T01:21:33.442Z,9.30
2023-02-21T01:26:54.518Z,9.30
2023-02-21T01:32:15.532Z,9.40
2023-02-21T01:37:38.318Z,9.40
2023-02-21T01:43:00.010Z,9.40
2023-02-21T01:48:21.413Z,9.30
2023-02-21T01:53:45.109Z,9.30
2023-02-21T01:59:10.162Z,9.30
2023-02-21T02:04:32.831Z,9.30
2023-02-21T02:09:55.726Z,9.30
2023-02-21T02:15:15.905Z,9.30
2023-02-21T02:20:45.715Z,9.30
2023-02-21T02:26:07.570Z,9.30
2023-02-21T02:31:53.294Z,9.30
2023-02-21T02:37:07.177Z,9.30
2023-02-21T02:42:24.274Z,9.30
2023-02-21T02:47:34.201Z,9.20
2023-02-21T02:52:51.415Z,9.20
2023-02-21T02:57:55.828Z,9.30
2023-02-21T03:03:29.527Z,9.20
2023-02-21T03:08:43.206Z,9.20
2023-02-21T03:13:50.136Z,9.20
2023-02-21T03:19:02.964Z,9.20
2023-02-21T03:24:11.199Z,9.20
2023-02-21T03:29:16.478Z,9.20
2023-02-21T03:34:20.374Z,9.20
2023-02-21T03:39:25.610Z,9.20
2023-02-21T03:44:29.543Z,9.20
2023-02-21T03:49:33.409Z,9.10
2023-02-21T03:54:38.814Z,9.10
2023-02-21T03:59:42.782Z,9.20
2023-02-21T04:04:48.546Z,9.10
2023-02-21T04:09:56.233Z,9.20
2023-02-21T04:15:11.792Z,9.10
2023-02-21T04:20:16.480Z,9.20
2023-02-21T04:25:27.276Z,9.10
2023-02-21T04:30:37.231Z,9.20
2023-02-21T04:35:41.714Z,9.20
2023-02-21T04:40:54.303Z,9.10
2023-02-21T04:45:58.120Z,9.10
2023-02-21T04:51:14.743Z,9.20
2023-02-21T04:56:23.237Z,9.10
2023-02-21T05:01:29.117Z,9.10
2023-02-21T05:06:33.750Z,9.00
2023-02-21T05:11:38.852Z,9.10
2023-02-21T05:16:42.529Z,9.10
2023-02-21T05:21:46.232Z,9.20
2023-02-21T05:26:52.000Z,9.20
2023-02-21T05:31:55.808Z,9.10
2023-02-21T05:36:59.493Z,9.10
2023-02-21T05:42:04.765Z,9.10
2023-02-21T05:47:08.486Z,9.10
2023-02-21T05:52:14.188Z,9.10
2023-02-21T05:57:20.690Z,9.10
2023-02-21T06:02:24.448Z,9.10
2023-02-21T06:07:28.459Z,9.00
2023-02-21T06:12:33.519Z,9.10
2023-02-21T06:17:38.454Z,9.10
2023-02-21T06:22:42.184Z,9.10
2023-02-21T06:27:47.241Z,9.10
2023-02-21T06:32:50.925Z,9.10
2023-02-21T06:37:54.784Z,9.00
2023-02-21T06:42:59.807Z,9.00
2023-02-21T06:48:03.870Z,9.00
2023-02-21T06:53:07.559Z,9.10
2023-02-21T06:58:12.734Z,9.00
2023-02-21T07:03:16.417Z,9.00
2023-02-21T07:08:20.121Z,9.00
2023-02-21T07:13:25.186Z,9.00
2023-02-21T07:18:29.276Z,9.10
2023-02-21T07:23:32.968Z,9.00
2023-02-21T07:28:38.100Z,9.00
2023-02-21T07:33:42.549Z,9.00
2023-02-21T07:38:46.259Z,9.10
2023-02-21T07:43:51.318Z,9.10
2023-02-21T07:48:55.042Z,9.10
2023-02-21T07:53:58.887Z,9.00
2023-02-21T07:59:03.896Z,8.90
2023-02-21T08:04:07.656Z,9.00
2023-02-21T08:09:11.285Z,8.90
2023-02-21T08:14:16.469Z,8.90
2023-02-21T08:19:20.311Z,8.80
2023-02-21T08:24:23.994Z,8.80
2023-02-21T08:29:29.176Z,8.80
2023-02-21T08:34:32.943Z,8.80
2023-02-21T08:39:36.670Z,8.90
2023-02-21T08:44:44.862Z,8.90
2023-02-21T08:49:49.580Z,8.80
2023-02-21T08:54:53.397Z,8.90
2023-02-21T08:59:58.534Z,8.90
2023-02-21T09:05:02.205Z,8.90
2023-02-21T09:10:07.423Z,8.90
2023-02-21T09:15:15.235Z,8.90
2023-02-21T09:20:21.950Z,9.00
2023-02-21T09:25:26.617Z,8.90
2023-02-21T09:30:32.134Z,8.80
2023-02-21T09:35:35.861Z,8.90
2023-02-21T09:40:44.178Z,8.90
2023-02-21T09:45:50.026Z,8.90
2023-02-21T09:50:56.801Z,8.90
2023-02-21T09:56:05.720Z,8.90
2023-02-21T10:01:21.289Z,8.90
2023-02-21T10:55:31.737Z,8.60
2023-02-21T11:00:39.503Z,8.90
2023-02-21T11:05:50.456Z,9.00
2023-02-21T11:10:57.379Z,9.10
2023-02-21T11:16:12.374Z,9.00
2023-02-21T11:21:19.044Z,9.10
2023-02-21T11:26:24.724Z,9.20
2023-02-21T11:31:31.293Z,9.20
2023-02-21T11:36:38.255Z,9.30
2023-02-21T11:41:50.439Z,9.30
2023-02-21T11:47:08.817Z,9.30
2023-02-21T11:52:17.117Z,9.30
2023-02-21T11:57:33.205Z,9.40
2023-02-21T12:03:22.595Z,9.40
2023-02-21T12:08:49.117Z,9.40
2023-02-21T12:14:15.511Z,9.50
2023-02-21T12:19:45.877Z,9.50
2023-02-21T12:25:13.987Z,9.60
2023-02-21T12:30:53.341Z,9.60
2023-02-21T12:36:20.468Z,9.70
2023-02-21T12:41:54.777Z,9.80
2023-02-21T12:47:05.510Z,9.80
2023-02-21T12:52:17.940Z,9.80
2023-02-21T12:57:32.005Z,9.80
2023-02-21T13:02:44.838Z,9.80
2023-02-21T13:07:58.977Z,9.70
2023-02-21T13:13:09.726Z,9.70
2023-02-21T13:18:21.539Z,9.70
2023-02-21T13:24:21.851Z,9.70
2023-02-21T13:29:42.226Z,9.70
2023-02-21T13:34:54.703Z,9.60
2023-02-21T13:40:07.754Z,9.60
2023-02-21T13:45:22.056Z,9.60
2023-02-21T13:50:50.691Z,9.60
2023-02-21T13:56:19.026Z,9.50
2023-02-21T14:01:46.815Z,9.50
2023-02-21T14:06:58.388Z,9.50
2023-02-21T14:12:05.209Z,9.40
2023-02-21T14:17:12.094Z,9.40
2023-02-21T14:22:27.494Z,9.30
2023-02-21T14:27:37.533Z,9.30
2023-02-21T14:32:45.652Z,9.30
2023-02-21T14:37:59.802Z,9.30
2023-02-21T14:43:32.725Z,9.40
2023-02-21T14:49:22.872Z,9.40
2023-02-21T14:55:29.602Z,9.40
2023-02-21T15:00:48.442Z,9.30
2023-02-21T15:06:04.410Z,9.20
2023-02-21T15:11:26.704Z,9.20
2023-02-21T15:16:33.877Z,9.20
2023-02-21T15:21:38.260Z,9.20
2023-02-21T15:26:44.029Z,9.20
2023-02-21T15:31:52.667Z,9.20
2023-02-21T15:37:05.005Z,9.20
2023-02-21T15:42:11.681Z,9.10
2023-02-21T15:47:21.443Z,9.10
2023-02-21T15:52:39.071Z,9.00
2023-02-21T15:57:45.933Z,9.00
2023-02-21T16:02:50.190Z,9.00
2023-02-21T16:07:55.305Z,9.00
2023-02-21T16:13:02.578Z,8.90
2023-02-21T16:18:08.561Z,8.90
2023-02-21T16:23:26.455Z,8.90
2023-02-21T16:28:32.634Z,8.90
2023-02-21T16:33:37.732Z,8.90
2023-02-21T16:38:41.774Z,8.80
2023-02-21T16:43:48.129Z,8.80
2023-02-21T16:48:54.674Z,8.80
2023-02-21T16:53:58.698Z,8.80
2023-02-21T16:59:05.047Z,8.80
2023-02-21T17:04:17.329Z,8.80
2023-02-21T17:09:25.327Z,8.70
2023-02-21T17:14:30.776Z,8.70
2023-02-21T17:19:34.754Z,8.70
2023-02-21T17:24:38.796Z,8.70
2023-02-21T17:29:44.206Z,8.70
2023-02-21T17:34:48.238Z,8.70
2023-02-21T17:39:54.660Z,8.60
2023-02-21T17:45:02.240Z,8.60
2023-02-21T17:50:07.644Z,8.60
2023-02-21T17:55:19.578Z,8.60
2023-02-21T18:00:28.345Z,8.60
2023-02-21T18:05:33.188Z,8.60
2023-02-21T18:10:37.383Z,8.60
2023-02-21T18:15:42.845Z,8.60
2023-02-21T18:20:47.064Z,8.50
2023-02-21T18:25:51.146Z,8.50
2023-02-21T18:30:56.673Z,8.60
2023-02-21T18:36:01.013Z,8.60
2023-02-21T18:41:05.472Z,8.50
2023-02-21T18:46:14.533Z,8.50
2023-02-21T18:51:20.962Z,8.50
2023-02-21T18:56:25.056Z,8.50
2023-02-21T19:01:30.533Z,8.50
2023-02-21T19:06:34.627Z,8.40
2023-02-21T19:11:38.916Z,8.40
2023-02-21T19:16:44.426Z,8.40
2023-02-21T19:21:48.617Z,8.40
2023-02-21T19:26:52.869Z,8.40
2023-02-21T19:31:58.729Z,8.40
2023-02-21T19:37:02.923Z,8.40
2023-02-21T19:42:07.512Z,8.40
2023-02-21T19:47:13.432Z,8.40
2023-02-21T19:52:17.744Z,8.40
2023-02-21T19:57:21.857Z,8.30
2023-02-21T20:02:27.442Z,8.30
2023-02-21T20:07:31.451Z,8.30
2023-02-21T20:12:35.578Z,8.30
2023-02-21T20:17:41.019Z,8.30
2023-02-21T20:22:45.068Z,8.30
2023-02-21T20:27:49.150Z,8.30
2023-02-21T20:32:54.567Z,8.20
2023-02-21T20:38:02.103Z,8.20
2023-02-21T20:43:06.329Z,8.20
2023-02-21T20:48:13.127Z,8.10
2023-02-21T20:53:17.712Z,8.10
2023-02-21T20:58:22.428Z,8.10
2023-02-21T21:03:29.605Z,8.10
2023-02-21T21:08:33.699Z,8.10
2023-02-21T21:13:37.706Z,8.00
2023-02-21T21:18:43.264Z,8.00
2023-02-21T21:23:47.260Z,8.00
2023-02-21T21:28:52.080Z,8.00
2023-02-21T21:33:58.437Z,8.00
2023-02-21T21:39:02.449Z,8.00
2023-02-21T21:44:07.992Z,7.90
2023-02-21T21:49:16.229Z,7.90
2023-02-21T21:54:21.707Z,7.90
2023-02-21T21:59:27.269Z,7.90
2023-02-21T22:04:32.841Z,8.00
2023-02-21T22:09:37.314Z,8.00
2023-02-21T22:14:41.308Z,7.90
2023-02-21T22:19:47.742Z,7.90
2023-02-21T22:24:51.913Z,7.90
2023-02-21T22:29:57.764Z,7.90
2023-02-21T22:35:03.342Z,7.80
2023-02-21T22:40:09.496Z,7.80
2023-02-21T22:45:13.568Z,7.70
2023-02-21T22:50:20.614Z,7.70
2023-02-21T22:55:26.352Z,7.70
2023-02-21T23:00:33.037Z,7.60
2023-02-21T23:05:39.330Z,7.50
2023-02-21T23:10:43.873Z,7.40
2023-02-21T23:15:48.635Z,7.40
2023-02-21T23:20:58.227Z,7.30
2023-02-21T23:26:02.316Z,7.30
2023-02-21T23:31:06.544Z,7.30
2023-02-21T23:36:12.400Z,7.30
2023-02-21T23:41:16.862Z,7.30
2023-02-21T23:46:25.319Z,7.40
2023-02-21T23:51:30.676Z,7.40
2023-02-21T23:56:35.511Z,7.40
